sensor_id;sensor_type;location;lat;lon;timestamp;temperature;humidity
74101;DHT22;62462;52.530;21.682;2023-05-10T00:01:23;11.10;46.20
74101;DHT22;62462;52.530;21.682;2023-05-10T00:03:49;11.10;46.20
74101;DHT22;62462;52.530;21.682;2023-05-10T00:06:15;11.10;46.20
74101;DHT22;62462;52.530;21.682;2023-05-10T00:08:40;11.10;46.10
74101;DHT22;62462;52.530;21.682;2023-05-10T00:11:06;11.10;46.00
74101;DHT22;62462;52.530;21.682;2023-05-10T00:13:32;11.10;46.10
74101;DHT22;62462;52.530;21.682;2023-05-10T00:15:58;11.10;45.90
74101;DHT22;62462;52.530;21.682;2023-05-10T00:18:24;11.10;45.80
74101;DHT22;62462;52.530;21.682;2023-05-10T00:20:49;11.10;45.90
74101;DHT22;62462;52.530;21.682;2023-05-10T00:23:15;11.10;45.90
74101;DHT22;62462;52.530;21.682;2023-05-10T00:25:41;11.10;46.10
74101;DHT22;62462;52.530;21.682;2023-05-10T00:28:07;11.00;46.10
74101;DHT22;62462;52.530;21.682;2023-05-10T00:30:32;10.90;46.30
74101;DHT22;62462;52.530;21.682;2023-05-10T00:32:58;10.90;46.40
74101;DHT22;62462;52.530;21.682;2023-05-10T00:35:24;10.90;46.50
74101;DHT22;62462;52.530;21.682;2023-05-10T00:37:50;10.90;46.60
74101;DHT22;62462;52.530;21.682;2023-05-10T00:40:16;10.90;46.60
74101;DHT22;62462;52.530;21.682;2023-05-10T00:42:41;10.90;46.50
74101;DHT22;62462;52.530;21.682;2023-05-10T00:45:07;10.90;46.60
74101;DHT22;62462;52.530;21.682;2023-05-10T00:47:34;10.80;46.50
74101;DHT22;62462;52.530;21.682;2023-05-10T00:50:00;10.80;46.50
74101;DHT22;62462;52.530;21.682;2023-05-10T00:52:28;10.80;46.50
74101;DHT22;62462;52.530;21.682;2023-05-10T00:54:54;10.80;46.50
74101;DHT22;62462;52.530;21.682;2023-05-10T00:57:21;10.80;46.50
74101;DHT22;62462;52.530;21.682;2023-05-10T00:59:47;10.80;46.50
74101;DHT22;62462;52.530;21.682;2023-05-10T01:02:13;10.70;46.50
74101;DHT22;62462;52.530;21.682;2023-05-10T01:04:39;10.70;46.60
74101;DHT22;62462;52.530;21.682;2023-05-10T01:07:06;10.70;46.70
74101;DHT22;62462;52.530;21.682;2023-05-10T01:09:32;10.70;46.70
74101;DHT22;62462;52.530;21.682;2023-05-10T01:11:59;10.60;46.70
74101;DHT22;62462;52.530;21.682;2023-05-10T01:14:27;10.60;46.80
74101;DHT22;62462;52.530;21.682;2023-05-10T01:16:54;10.60;46.90
74101;DHT22;62462;52.530;21.682;2023-05-10T01:19:26;10.60;46.80
74101;DHT22;62462;52.530;21.682;2023-05-10T01:22:02;10.60;47.00
74101;DHT22;62462;52.530;21.682;2023-05-10T01:25:27;10.60;47.00
74101;DHT22;62462;52.530;21.682;2023-05-10T01:38:50;10.30;48.10
74101;DHT22;62462;52.530;21.682;2023-05-10T01:41:18;10.20;48.20
74101;DHT22;62462;52.530;21.682;2023-05-10T01:44:02;10.10;48.50
74101;DHT22;62462;52.530;21.682;2023-05-10T01:46:37;10.00;48.80
74101;DHT22;62462;52.530;21.682;2023-05-10T01:49:08;9.90;48.90
74101;DHT22;62462;52.530;21.682;2023-05-10T01:51:47;9.90;49.10
74101;DHT22;62462;52.530;21.682;2023-05-10T01:54:15;9.90;49.20
74101;DHT22;62462;52.530;21.682;2023-05-10T01:56:44;9.80;49.10
74101;DHT22;62462;52.530;21.682;2023-05-10T01:59:17;9.80;49.10
74101;DHT22;62462;52.530;21.682;2023-05-10T02:01:45;9.80;49.20
74101;DHT22;62462;52.530;21.682;2023-05-10T02:04:14;9.80;49.30
74101;DHT22;62462;52.530;21.682;2023-05-10T02:06:42;9.70;49.60
74101;DHT22;62462;52.530;21.682;2023-05-10T02:09:09;9.70;49.70
74101;DHT22;62462;52.530;21.682;2023-05-10T02:11:38;9.70;50.00
74101;DHT22;62462;52.530;21.682;2023-05-10T02:14:07;9.60;50.00
74101;DHT22;62462;52.530;21.682;2023-05-10T02:16:35;9.60;49.90
74101;DHT22;62462;52.530;21.682;2023-05-10T02:19:02;9.60;50.80
74101;DHT22;62462;52.530;21.682;2023-05-10T02:21:29;9.60;50.00
74101;DHT22;62462;52.530;21.682;2023-05-10T02:23:57;9.60;50.10
74101;DHT22;62462;52.530;21.682;2023-05-10T02:26:24;9.50;50.10
74101;DHT22;62462;52.530;21.682;2023-05-10T02:28:51;9.50;50.00
74101;DHT22;62462;52.530;21.682;2023-05-10T02:31:19;9.50;50.00
74101;DHT22;62462;52.530;21.682;2023-05-10T02:33:46;9.50;50.00
74101;DHT22;62462;52.530;21.682;2023-05-10T02:36:12;9.50;50.20
74101;DHT22;62462;52.530;21.682;2023-05-10T02:38:39;9.40;50.50
74101;DHT22;62462;52.530;21.682;2023-05-10T02:41:07;9.40;50.50
74101;DHT22;62462;52.530;21.682;2023-05-10T02:43:35;9.30;50.50
74101;DHT22;62462;52.530;21.682;2023-05-10T02:46:02;9.30;50.90
74101;DHT22;62462;52.530;21.682;2023-05-10T02:48:29;9.20;51.00
74101;DHT22;62462;52.530;21.682;2023-05-10T02:50:57;9.20;50.80
74101;DHT22;62462;52.530;21.682;2023-05-10T02:53:31;9.30;50.60
74101;DHT22;62462;52.530;21.682;2023-05-10T02:55:59;9.30;50.40
74101;DHT22;62462;52.530;21.682;2023-05-10T02:58:25;9.30;50.20
74101;DHT22;62462;52.530;21.682;2023-05-10T03:00:52;9.40;50.00
74101;DHT22;62462;52.530;21.682;2023-05-10T03:03:18;9.50;49.60
74101;DHT22;62462;52.530;21.682;2023-05-10T03:05:43;9.60;49.40
74101;DHT22;62462;52.530;21.682;2023-05-10T03:08:09;9.60;49.00
74101;DHT22;62462;52.530;21.682;2023-05-10T03:10:58;9.70;48.80
74101;DHT22;62462;52.530;21.682;2023-05-10T03:13:33;9.70;48.80
74101;DHT22;62462;52.530;21.682;2023-05-10T03:18:50;9.80;48.50
74101;DHT22;62462;52.530;21.682;2023-05-10T03:21:18;9.80;48.60
74101;DHT22;62462;52.530;21.682;2023-05-10T03:24:13;9.80;48.30
74101;DHT22;62462;52.530;21.682;2023-05-10T03:26:43;9.90;48.10
74101;DHT22;62462;52.530;21.682;2023-05-10T03:29:12;9.90;48.20
74101;DHT22;62462;52.530;21.682;2023-05-10T03:31:39;9.90;47.80
74101;DHT22;62462;52.530;21.682;2023-05-10T03:34:05;9.90;47.70
74101;DHT22;62462;52.530;21.682;2023-05-10T03:36:31;9.90;47.70
74101;DHT22;62462;52.530;21.682;2023-05-10T03:38:57;10.00;47.70
74101;DHT22;62462;52.530;21.682;2023-05-10T03:41:22;10.00;47.60
74101;DHT22;62462;52.530;21.682;2023-05-10T03:43:48;10.00;47.50
74101;DHT22;62462;52.530;21.682;2023-05-10T03:46:14;10.00;47.10
74101;DHT22;62462;52.530;21.682;2023-05-10T03:48:40;10.00;47.20
74101;DHT22;62462;52.530;21.682;2023-05-10T03:51:05;10.00;47.00
74101;DHT22;62462;52.530;21.682;2023-05-10T03:53:31;10.10;47.10
74101;DHT22;62462;52.530;21.682;2023-05-10T03:55:57;10.10;47.00
74101;DHT22;62462;52.530;21.682;2023-05-10T03:58:22;10.10;46.90
74101;DHT22;62462;52.530;21.682;2023-05-10T04:00:48;10.10;46.90
74101;DHT22;62462;52.530;21.682;2023-05-10T04:03:14;10.00;46.70
74101;DHT22;62462;52.530;21.682;2023-05-10T04:05:40;10.10;46.90
74101;DHT22;62462;52.530;21.682;2023-05-10T04:08:05;10.20;46.90
74101;DHT22;62462;52.530;21.682;2023-05-10T04:10:32;10.20;46.40
74101;DHT22;62462;52.530;21.682;2023-05-10T04:12:58;10.20;46.20
74101;DHT22;62462;52.530;21.682;2023-05-10T04:15:23;10.20;46.30
74101;DHT22;62462;52.530;21.682;2023-05-10T04:17:49;10.30;46.40
74101;DHT22;62462;52.530;21.682;2023-05-10T04:20:16;10.30;46.30
74101;DHT22;62462;52.530;21.682;2023-05-10T04:22:42;10.70;46.30
74101;DHT22;62462;52.530;21.682;2023-05-10T04:25:08;10.50;46.10
74101;DHT22;62462;52.530;21.682;2023-05-10T04:27:34;10.50;45.50
74101;DHT22;62462;52.530;21.682;2023-05-10T04:29:59;10.50;46.00
74101;DHT22;62462;52.530;21.682;2023-05-10T04:32:25;10.60;45.80
74101;DHT22;62462;52.530;21.682;2023-05-10T04:34:51;10.60;45.50
74101;DHT22;62462;52.530;21.682;2023-05-10T04:37:17;10.60;45.80
74101;DHT22;62462;52.530;21.682;2023-05-10T04:39:43;10.70;46.10
74101;DHT22;62462;52.530;21.682;2023-05-10T04:42:09;10.80;45.90
74101;DHT22;62462;52.530;21.682;2023-05-10T04:44:35;10.90;45.20
74101;DHT22;62462;52.530;21.682;2023-05-10T04:47:01;10.90;45.30
74101;DHT22;62462;52.530;21.682;2023-05-10T04:49:28;11.00;45.20
74101;DHT22;62462;52.530;21.682;2023-05-10T04:51:55;11.00;45.30
74101;DHT22;62462;52.530;21.682;2023-05-10T04:54:20;11.10;45.30
74101;DHT22;62462;52.530;21.682;2023-05-10T04:56:46;11.10;45.20
74101;DHT22;62462;52.530;21.682;2023-05-10T04:59:12;11.20;45.20
74101;DHT22;62462;52.530;21.682;2023-05-10T05:01:38;11.30;44.50
74101;DHT22;62462;52.530;21.682;2023-05-10T05:04:03;11.30;44.80
74101;DHT22;62462;52.530;21.682;2023-05-10T05:06:29;11.30;45.00
74101;DHT22;62462;52.530;21.682;2023-05-10T05:08:55;11.30;45.20
74101;DHT22;62462;52.530;21.682;2023-05-10T05:11:21;11.50;45.10
74101;DHT22;62462;52.530;21.682;2023-05-10T05:13:46;11.50;45.00
74101;DHT22;62462;52.530;21.682;2023-05-10T05:16:12;11.60;45.20
74101;DHT22;62462;52.530;21.682;2023-05-10T05:18:38;11.70;45.40
74101;DHT22;62462;52.530;21.682;2023-05-10T05:21:16;11.80;44.80
74101;DHT22;62462;52.530;21.682;2023-05-10T05:23:42;11.80;44.30
74101;DHT22;62462;52.530;21.682;2023-05-10T05:26:08;11.90;44.20
74101;DHT22;62462;52.530;21.682;2023-05-10T05:28:35;12.00;44.70
74101;DHT22;62462;52.530;21.682;2023-05-10T05:31:03;12.00;44.40
74101;DHT22;62462;52.530;21.682;2023-05-10T05:33:29;12.00;44.90
74101;DHT22;62462;52.530;21.682;2023-05-10T05:35:55;12.20;45.10
74101;DHT22;62462;52.530;21.682;2023-05-10T05:38:20;12.30;44.30
74101;DHT22;62462;52.530;21.682;2023-05-10T05:40:46;12.30;45.00
74101;DHT22;62462;52.530;21.682;2023-05-10T05:43:12;12.50;44.00
74101;DHT22;62462;52.530;21.682;2023-05-10T05:45:39;12.60;43.60
74101;DHT22;62462;52.530;21.682;2023-05-10T05:48:05;12.60;43.60
74101;DHT22;62462;52.530;21.682;2023-05-10T05:50:30;12.70;44.30
74101;DHT22;62462;52.530;21.682;2023-05-10T05:52:56;12.90;43.60
74101;DHT22;62462;52.530;21.682;2023-05-10T05:55:22;13.00;43.50
74101;DHT22;62462;52.530;21.682;2023-05-10T05:57:49;13.10;43.50
74101;DHT22;62462;52.530;21.682;2023-05-10T06:00:15;13.20;42.90
74101;DHT22;62462;52.530;21.682;2023-05-10T06:02:41;13.30;42.90
74101;DHT22;62462;52.530;21.682;2023-05-10T06:05:07;13.30;43.10
74101;DHT22;62462;52.530;21.682;2023-05-10T06:07:33;13.50;43.30
74101;DHT22;62462;52.530;21.682;2023-05-10T06:09:59;13.60;43.20
74101;DHT22;62462;52.530;21.682;2023-05-10T06:12:25;13.80;42.80
74101;DHT22;62462;52.530;21.682;2023-05-10T06:14:50;13.80;42.10
74101;DHT22;62462;52.530;21.682;2023-05-10T06:17:16;13.80;41.60
74101;DHT22;62462;52.530;21.682;2023-05-10T06:19:42;13.90;42.70
74101;DHT22;62462;52.530;21.682;2023-05-10T06:22:08;13.90;42.30
74101;DHT22;62462;52.530;21.682;2023-05-10T06:24:33;14.10;42.70
74101;DHT22;62462;52.530;21.682;2023-05-10T06:26:59;14.20;41.10
74101;DHT22;62462;52.530;21.682;2023-05-10T06:29:26;14.30;41.40
74101;DHT22;62462;52.530;21.682;2023-05-10T06:31:51;14.30;40.60
74101;DHT22;62462;52.530;21.682;2023-05-10T06:34:17;14.40;41.20
74101;DHT22;62462;52.530;21.682;2023-05-10T06:36:43;14.50;40.20
74101;DHT22;62462;52.530;21.682;2023-05-10T06:39:08;14.50;40.00
74101;DHT22;62462;52.530;21.682;2023-05-10T06:41:37;14.60;41.10
74101;DHT22;62462;52.530;21.682;2023-05-10T06:44:02;14.80;40.20
74101;DHT22;62462;52.530;21.682;2023-05-10T06:46:29;14.90;39.50
74101;DHT22;62462;52.530;21.682;2023-05-10T06:48:54;14.90;39.20
74101;DHT22;62462;52.530;21.682;2023-05-10T06:51:20;15.00;39.40
74101;DHT22;62462;52.530;21.682;2023-05-10T06:53:46;15.00;38.50
74101;DHT22;62462;52.530;21.682;2023-05-10T06:56:12;15.00;38.30
74101;DHT22;62462;52.530;21.682;2023-05-10T06:58:38;15.10;39.30
74101;DHT22;62462;52.530;21.682;2023-05-10T07:01:07;15.30;39.30
74101;DHT22;62462;52.530;21.682;2023-05-10T07:03:33;15.40;38.00
74101;DHT22;62462;52.530;21.682;2023-05-10T07:06:05;15.40;38.40
74101;DHT22;62462;52.530;21.682;2023-05-10T07:08:35;15.50;39.20
74101;DHT22;62462;52.530;21.682;2023-05-10T07:11:05;15.70;40.00
74101;DHT22;62462;52.530;21.682;2023-05-10T07:13:33;15.90;38.30
74101;DHT22;62462;52.530;21.682;2023-05-10T07:15:59;16.10;38.50
74101;DHT22;62462;52.530;21.682;2023-05-10T07:18:25;16.10;36.80
74101;DHT22;62462;52.530;21.682;2023-05-10T07:20:51;16.20;37.50
74101;DHT22;62462;52.530;21.682;2023-05-10T07:23:17;16.30;36.50
74101;DHT22;62462;52.530;21.682;2023-05-10T07:25:47;16.30;36.50
74101;DHT22;62462;52.530;21.682;2023-05-10T07:28:14;16.40;35.70
74101;DHT22;62462;52.530;21.682;2023-05-10T07:30:40;16.50;36.40
74101;DHT22;62462;52.530;21.682;2023-05-10T07:33:07;16.60;34.00
74101;DHT22;62462;52.530;21.682;2023-05-10T07:35:33;16.60;33.80
74101;DHT22;62462;52.530;21.682;2023-05-10T07:37:59;16.70;33.60
74101;DHT22;62462;52.530;21.682;2023-05-10T07:40:25;16.80;32.90
74101;DHT22;62462;52.530;21.682;2023-05-10T07:42:51;16.80;32.10
74101;DHT22;62462;52.530;21.682;2023-05-10T07:45:17;16.80;32.20
74101;DHT22;62462;52.530;21.682;2023-05-10T07:47:43;16.90;31.00
74101;DHT22;62462;52.530;21.682;2023-05-10T07:50:09;17.00;32.90
74101;DHT22;62462;52.530;21.682;2023-05-10T07:52:35;17.10;31.10
74101;DHT22;62462;52.530;21.682;2023-05-10T07:55:00;17.10;31.40
74101;DHT22;62462;52.530;21.682;2023-05-10T07:57:26;17.20;31.70
74101;DHT22;62462;52.530;21.682;2023-05-10T07:59:52;17.30;31.00
74101;DHT22;62462;52.530;21.682;2023-05-10T08:02:18;17.30;28.10
74101;DHT22;62462;52.530;21.682;2023-05-10T08:04:43;17.30;28.40
74101;DHT22;62462;52.530;21.682;2023-05-10T08:07:09;17.40;29.00
74101;DHT22;62462;52.530;21.682;2023-05-10T08:09:36;17.50;27.00
74101;DHT22;62462;52.530;21.682;2023-05-10T08:12:02;17.40;27.20
74101;DHT22;62462;52.530;21.682;2023-05-10T08:14:29;17.40;28.30
74101;DHT22;62462;52.530;21.682;2023-05-10T08:16:55;17.50;28.80
74101;DHT22;62462;52.530;21.682;2023-05-10T08:19:20;17.60;27.40
74101;DHT22;62462;52.530;21.682;2023-05-10T08:21:47;17.70;27.70
74101;DHT22;62462;52.530;21.682;2023-05-10T08:24:13;17.70;27.00
74101;DHT22;62462;52.530;21.682;2023-05-10T08:26:38;17.80;27.10
74101;DHT22;62462;52.530;21.682;2023-05-10T08:29:04;17.90;28.40
74101;DHT22;62462;52.530;21.682;2023-05-10T08:31:30;18.00;25.70
74101;DHT22;62462;52.530;21.682;2023-05-10T08:33:56;17.90;25.70
74101;DHT22;62462;52.530;21.682;2023-05-10T08:36:21;17.90;25.60
74101;DHT22;62462;52.530;21.682;2023-05-10T08:38:53;17.90;25.80
74101;DHT22;62462;52.530;21.682;2023-05-10T08:41:22;17.80;26.00
74101;DHT22;62462;52.530;21.682;2023-05-10T08:43:53;17.90;26.30
74101;DHT22;62462;52.530;21.682;2023-05-10T08:46:22;18.00;25.70
74101;DHT22;62462;52.530;21.682;2023-05-10T08:48:50;18.00;26.10
74101;DHT22;62462;52.530;21.682;2023-05-10T08:51:22;18.20;26.60
74101;DHT22;62462;52.530;21.682;2023-05-10T08:53:50;18.30;25.80
74101;DHT22;62462;52.530;21.682;2023-05-10T08:56:16;18.40;25.30
74101;DHT22;62462;52.530;21.682;2023-05-10T08:58:43;18.50;27.00
74101;DHT22;62462;52.530;21.682;2023-05-10T09:01:09;18.60;26.60
74101;DHT22;62462;52.530;21.682;2023-05-10T09:03:38;18.70;25.20
74101;DHT22;62462;52.530;21.682;2023-05-10T09:06:04;18.80;25.70
74101;DHT22;62462;52.530;21.682;2023-05-10T09:08:30;18.80;25.00
74101;DHT22;62462;52.530;21.682;2023-05-10T09:10:56;18.70;25.20
74101;DHT22;62462;52.530;21.682;2023-05-10T09:13:23;18.70;25.10
74101;DHT22;62462;52.530;21.682;2023-05-10T09:15:50;18.80;24.90
74101;DHT22;62462;52.530;21.682;2023-05-10T09:18:16;18.80;25.60
74101;DHT22;62462;52.530;21.682;2023-05-10T09:20:42;18.90;25.10
74101;DHT22;62462;52.530;21.682;2023-05-10T09:23:08;19.00;25.20
74101;DHT22;62462;52.530;21.682;2023-05-10T09:25:34;19.00;25.40
74101;DHT22;62462;52.530;21.682;2023-05-10T09:28:00;19.10;24.00
74101;DHT22;62462;52.530;21.682;2023-05-10T09:30:28;19.10;23.90
74101;DHT22;62462;52.530;21.682;2023-05-10T09:32:55;19.10;25.50
74101;DHT22;62462;52.530;21.682;2023-05-10T09:35:24;19.10;24.00
74101;DHT22;62462;52.530;21.682;2023-05-10T09:37:53;19.10;24.00
74101;DHT22;62462;52.530;21.682;2023-05-10T09:40:24;19.00;24.20
74101;DHT22;62462;52.530;21.682;2023-05-10T09:45:21;19.20;24.60
74101;DHT22;62462;52.530;21.682;2023-05-10T09:47:47;19.20;24.40
74101;DHT22;62462;52.530;21.682;2023-05-10T09:50:13;19.20;23.80
74101;DHT22;62462;52.530;21.682;2023-05-10T09:52:49;19.20;24.30
74101;DHT22;62462;52.530;21.682;2023-05-10T09:55:16;19.20;23.70
74101;DHT22;62462;52.530;21.682;2023-05-10T09:57:42;19.30;23.50
74101;DHT22;62462;52.530;21.682;2023-05-10T10:00:08;19.20;24.20
74101;DHT22;62462;52.530;21.682;2023-05-10T10:02:38;19.30;24.50
74101;DHT22;62462;52.530;21.682;2023-05-10T10:05:06;19.40;25.00
74101;DHT22;62462;52.530;21.682;2023-05-10T10:07:32;19.60;24.70
74101;DHT22;62462;52.530;21.682;2023-05-10T10:09:59;19.70;24.40
74101;DHT22;62462;52.530;21.682;2023-05-10T10:12:25;19.70;24.50
74101;DHT22;62462;52.530;21.682;2023-05-10T10:14:52;19.70;25.10
74101;DHT22;62462;52.530;21.682;2023-05-10T10:17:19;19.80;25.70
74101;DHT22;62462;52.530;21.682;2023-05-10T10:19:45;20.00;24.50
74101;DHT22;62462;52.530;21.682;2023-05-10T10:22:11;20.00;24.50
74101;DHT22;62462;52.530;21.682;2023-05-10T10:24:38;19.80;24.00
74101;DHT22;62462;52.530;21.682;2023-05-10T10:27:20;19.80;24.00
74101;DHT22;62462;52.530;21.682;2023-05-10T10:30:13;19.80;25.10
74101;DHT22;62462;52.530;21.682;2023-05-10T10:35:43;20.00;26.40
74101;DHT22;62462;52.530;21.682;2023-05-10T10:38:12;20.00;24.70
74101;DHT22;62462;52.530;21.682;2023-05-10T10:40:38;20.00;25.70
74101;DHT22;62462;52.530;21.682;2023-05-10T10:43:24;20.10;25.00
74101;DHT22;62462;52.530;21.682;2023-05-10T10:46:13;20.20;25.70
74101;DHT22;62462;52.530;21.682;2023-05-10T10:48:40;20.40;25.10
74101;DHT22;62462;52.530;21.682;2023-05-10T10:51:06;20.60;24.80
74101;DHT22;62462;52.530;21.682;2023-05-10T10:53:33;20.60;25.10
74101;DHT22;62462;52.530;21.682;2023-05-10T10:56:10;20.60;24.40
74101;DHT22;62462;52.530;21.682;2023-05-10T10:58:38;20.60;24.00
74101;DHT22;62462;52.530;21.682;2023-05-10T11:01:13;20.60;25.40
74101;DHT22;62462;52.530;21.682;2023-05-10T11:03:40;20.70;24.80
74101;DHT22;62462;52.530;21.682;2023-05-10T11:06:06;20.60;24.30
74101;DHT22;62462;52.530;21.682;2023-05-10T11:08:35;20.60;24.80
74101;DHT22;62462;52.530;21.682;2023-05-10T11:11:07;20.60;24.50
74101;DHT22;62462;52.530;21.682;2023-05-10T11:13:44;20.70;26.00
74101;DHT22;62462;52.530;21.682;2023-05-10T11:16:21;20.80;24.10
74101;DHT22;62462;52.530;21.682;2023-05-10T11:19:08;20.70;24.80
74101;DHT22;62462;52.530;21.682;2023-05-10T11:21:45;20.70;24.70
74101;DHT22;62462;52.530;21.682;2023-05-10T11:24:16;20.80;24.70
74101;DHT22;62462;52.530;21.682;2023-05-10T11:26:42;21.00;25.30
74101;DHT22;62462;52.530;21.682;2023-05-10T11:29:08;21.10;25.20
74101;DHT22;62462;52.530;21.682;2023-05-10T11:31:34;21.20;24.00
74101;DHT22;62462;52.530;21.682;2023-05-10T11:34:01;21.40;24.80
74101;DHT22;62462;52.530;21.682;2023-05-10T11:36:34;21.40;24.10
74101;DHT22;62462;52.530;21.682;2023-05-10T11:39:01;21.30;24.50
74101;DHT22;62462;52.530;21.682;2023-05-10T11:41:28;21.20;24.00
74101;DHT22;62462;52.530;21.682;2023-05-10T11:43:54;21.10;24.60
74101;DHT22;62462;52.530;21.682;2023-05-10T11:46:22;21.20;24.50
74101;DHT22;62462;52.530;21.682;2023-05-10T11:48:50;21.30;25.10
74101;DHT22;62462;52.530;21.682;2023-05-10T11:51:20;21.70;24.70
74101;DHT22;62462;52.530;21.682;2023-05-10T11:53:46;21.80;23.50
74101;DHT22;62462;52.530;21.682;2023-05-10T11:56:12;21.60;24.20
74101;DHT22;62462;52.530;21.682;2023-05-10T11:58:39;21.60;24.20
74101;DHT22;62462;52.530;21.682;2023-05-10T12:01:07;21.70;23.90
74101;DHT22;62462;52.530;21.682;2023-05-10T12:03:34;21.80;23.50
74101;DHT22;62462;52.530;21.682;2023-05-10T12:06:01;21.80;23.00
74101;DHT22;62462;52.530;21.682;2023-05-10T12:08:28;21.70;23.50
74101;DHT22;62462;52.530;21.682;2023-05-10T12:11:08;21.70;23.40
74101;DHT22;62462;52.530;21.682;2023-05-10T12:13:41;21.50;23.30
74101;DHT22;62462;52.530;21.682;2023-05-10T12:16:13;21.50;24.20
74101;DHT22;62462;52.530;21.682;2023-05-10T12:18:40;21.60;22.70
74101;DHT22;62462;52.530;21.682;2023-05-10T12:21:07;21.60;23.70
74101;DHT22;62462;52.530;21.682;2023-05-10T12:23:34;21.50;22.50
74101;DHT22;62462;52.530;21.682;2023-05-10T12:26:02;21.50;23.40
74101;DHT22;62462;52.530;21.682;2023-05-10T12:28:32;21.40;22.70
74101;DHT22;62462;52.530;21.682;2023-05-10T12:30:59;21.40;23.00
74101;DHT22;62462;52.530;21.682;2023-05-10T12:33:25;21.30;23.00
74101;DHT22;62462;52.530;21.682;2023-05-10T12:35:52;21.30;24.00
74101;DHT22;62462;52.530;21.682;2023-05-10T12:38:25;21.50;23.30
74101;DHT22;62462;52.530;21.682;2023-05-10T12:40:52;21.60;23.00
74101;DHT22;62462;52.530;21.682;2023-05-10T12:43:17;21.80;23.20
74101;DHT22;62462;52.530;21.682;2023-05-10T12:45:43;21.90;23.70
74101;DHT22;62462;52.530;21.682;2023-05-10T12:48:13;22.10;23.80
74101;DHT22;62462;52.530;21.682;2023-05-10T12:50:39;22.30;23.30
74101;DHT22;62462;52.530;21.682;2023-05-10T12:53:05;22.30;22.40
74101;DHT22;62462;52.530;21.682;2023-05-10T12:55:30;22.20;23.30
74101;DHT22;62462;52.530;21.682;2023-05-10T12:57:56;22.00;23.00
74101;DHT22;62462;52.530;21.682;2023-05-10T13:00:22;21.90;23.50
74101;DHT22;62462;52.530;21.682;2023-05-10T13:02:48;21.70;23.10
74101;DHT22;62462;52.530;21.682;2023-05-10T13:05:14;21.80;23.40
74101;DHT22;62462;52.530;21.682;2023-05-10T13:07:40;22.00;23.60
74101;DHT22;62462;52.530;21.682;2023-05-10T13:10:06;21.90;23.10
74101;DHT22;62462;52.530;21.682;2023-05-10T13:12:33;21.70;23.30
74101;DHT22;62462;52.530;21.682;2023-05-10T13:14:58;21.80;23.60
74101;DHT22;62462;52.530;21.682;2023-05-10T13:17:25;21.90;23.80
74101;DHT22;62462;52.530;21.682;2023-05-10T13:19:51;22.00;23.00
74101;DHT22;62462;52.530;21.682;2023-05-10T13:22:17;22.00;24.00
74101;DHT22;62462;52.530;21.682;2023-05-10T13:24:43;22.10;23.30
74101;DHT22;62462;52.530;21.682;2023-05-10T13:27:09;22.30;23.80
74101;DHT22;62462;52.530;21.682;2023-05-10T13:29:34;22.30;22.90
74101;DHT22;62462;52.530;21.682;2023-05-10T13:32:00;22.30;23.20
74101;DHT22;62462;52.530;21.682;2023-05-10T13:34:26;22.20;21.90
74101;DHT22;62462;52.530;21.682;2023-05-10T13:36:53;22.00;22.00
74101;DHT22;62462;52.530;21.682;2023-05-10T13:39:20;22.00;22.60
74101;DHT22;62462;52.530;21.682;2023-05-10T13:41:46;22.00;22.60
74101;DHT22;62462;52.530;21.682;2023-05-10T13:44:12;22.20;24.00
74101;DHT22;62462;52.530;21.682;2023-05-10T13:46:40;22.30;22.70
74101;DHT22;62462;52.530;21.682;2023-05-10T13:49:06;22.40;24.20
74101;DHT22;62462;52.530;21.682;2023-05-10T13:51:32;22.60;22.90
74101;DHT22;62462;52.530;21.682;2023-05-10T13:53:58;22.50;22.00
74101;DHT22;62462;52.530;21.682;2023-05-10T13:56:24;22.40;23.20
74101;DHT22;62462;52.530;21.682;2023-05-10T13:58:50;22.20;22.20
74101;DHT22;62462;52.530;21.682;2023-05-10T14:01:16;22.10;23.00
74101;DHT22;62462;52.530;21.682;2023-05-10T14:03:42;22.10;23.20
74101;DHT22;62462;52.530;21.682;2023-05-10T14:06:08;22.10;22.50
74101;DHT22;62462;52.530;21.682;2023-05-10T14:08:35;22.20;23.30
74101;DHT22;62462;52.530;21.682;2023-05-10T14:11:01;22.30;22.40
74101;DHT22;62462;52.530;21.682;2023-05-10T14:13:27;22.30;22.00
74101;DHT22;62462;52.530;21.682;2023-05-10T14:15:53;22.30;23.00
74101;DHT22;62462;52.530;21.682;2023-05-10T14:18:19;22.30;22.50
74101;DHT22;62462;52.530;21.682;2023-05-10T14:20:45;22.20;22.00
74101;DHT22;62462;52.530;21.682;2023-05-10T14:23:11;22.10;22.50
74101;DHT22;62462;52.530;21.682;2023-05-10T14:25:40;22.10;22.90
74101;DHT22;62462;52.530;21.682;2023-05-10T14:28:06;22.20;22.20
74101;DHT22;62462;52.530;21.682;2023-05-10T14:30:32;22.10;22.90
74101;DHT22;62462;52.530;21.682;2023-05-10T14:33:00;22.00;22.50
74101;DHT22;62462;52.530;21.682;2023-05-10T14:35:27;22.10;22.80
74101;DHT22;62462;52.530;21.682;2023-05-10T14:37:53;22.10;23.30
74101;DHT22;62462;52.530;21.682;2023-05-10T14:40:19;22.20;23.30
74101;DHT22;62462;52.530;21.682;2023-05-10T14:42:44;22.30;23.30
74101;DHT22;62462;52.530;21.682;2023-05-10T14:45:11;22.40;22.40
74101;DHT22;62462;52.530;21.682;2023-05-10T14:47:37;22.30;22.20
74101;DHT22;62462;52.530;21.682;2023-05-10T14:50:03;22.30;22.90
74101;DHT22;62462;52.530;21.682;2023-05-10T14:52:29;22.30;22.70
74101;DHT22;62462;52.530;21.682;2023-05-10T14:54:55;22.30;22.80
74101;DHT22;62462;52.530;21.682;2023-05-10T14:57:21;22.30;22.30
74101;DHT22;62462;52.530;21.682;2023-05-10T14:59:46;22.40;23.30
74101;DHT22;62462;52.530;21.682;2023-05-10T15:02:13;22.50;22.50
74101;DHT22;62462;52.530;21.682;2023-05-10T15:04:39;22.40;22.00
74101;DHT22;62462;52.530;21.682;2023-05-10T15:07:04;22.30;22.10
74101;DHT22;62462;52.530;21.682;2023-05-10T15:09:31;22.10;22.30
74101;DHT22;62462;52.530;21.682;2023-05-10T15:11:56;22.00;21.90
74101;DHT22;62462;52.530;21.682;2023-05-10T15:14:22;21.80;22.40
74101;DHT22;62462;52.530;21.682;2023-05-10T15:16:48;21.80;22.80
74101;DHT22;62462;52.530;21.682;2023-05-10T15:19:14;21.70;22.60
74101;DHT22;62462;52.530;21.682;2023-05-10T15:21:40;21.70;23.00
74101;DHT22;62462;52.530;21.682;2023-05-10T15:24:08;21.70;22.50
74101;DHT22;62462;52.530;21.682;2023-05-10T15:26:35;21.60;22.60
74101;DHT22;62462;52.530;21.682;2023-05-10T15:29:00;21.50;22.80
74101;DHT22;62462;52.530;21.682;2023-05-10T15:31:26;21.50;22.60
74101;DHT22;62462;52.530;21.682;2023-05-10T15:33:57;21.50;22.90
74101;DHT22;62462;52.530;21.682;2023-05-10T15:36:24;21.40;22.70
74101;DHT22;62462;52.530;21.682;2023-05-10T15:38:49;21.30;23.30